• Join FlightAware (Why Join?)
  • Login
  • US Flag 
01:52PM EDT


 

Airport Tracker/Info


-or-


 

Live Flight TrackerFlight Track Log ✈ OPT332 ✈ 16-Nov-2013 ✈ KDRO - KCID

Flight Track Log - Related Links

Times and Time Zones

All times are in EST time to prevent confusion due to time zone crossing. See the OPT332 flight status page for this flight to view local times or setup timezone preferences in your user account.

Time Position Orientation Groundspeed Altitude Reporting Facility
EST Latitude Longitude Course Direction KTS MPH feet Rate Location/Type
03:26PM 37.4378 -107.0062 90° East  Level Estimated
03:27PM 37.4850 -106.8811 84° East  Level Estimated
03:27PM 37.1889 -107.4109 84° East 397 457 23,800  Level FlightAware ADS-B (KMTJ)
03:28PM 37.2128 -107.3378 68° East 401 461 25,300 2,700 Climbing FlightAware ADS-B (KMTJ)
03:28PM 37.2334 -107.2747 68° East 406 467 26,700 2,700 Climbing FlightAware ADS-B (KMTJ)
03:29PM 37.2583 -107.1982 68° East 408 470 28,200 2,640 Climbing FlightAware ADS-B (KMTJ)
03:29PM 37.2798 -107.1320 68° East 410 472 29,600 2,640 Climbing FlightAware ADS-B (KMTJ)
03:30PM 37.3032 -107.0598 68° East 411 473 31,000 2,280 Climbing FlightAware ADS-B (KMTJ)
03:31PM 37.3248 -106.9929 68° East 419 482 32,000 1,860 Climbing FlightAware ADS-B (KMTJ)
03:31PM 37.3491 -106.9174 68° East 428 493 33,000 2,040 Climbing FlightAware ADS-B (KMTJ)
03:32PM 37.3712 -106.8488 68° East 424 488 34,200 2,160 Climbing FlightAware ADS-B (KMTJ)
03:32PM 37.3954 -106.7734 68° East 418 481 35,300 1,740 Climbing FlightAware ADS-B (KMTJ)
03:33PM 37.4196 -106.6977 68° East 418 481 36,200 1,500 Climbing FlightAware ADS-B (KMTJ)
03:33PM 37.4406 -106.6317 68° East 422 486 36,900 780 Climbing FlightAware ADS-B (KMTJ)
03:34PM 37.4633 -106.5606 68° East 437 503 37,000 60 Climbing FlightAware ADS-B (KMTJ)
03:34PM 37.4872 -106.4855 68° East 451 519 37,000  Level FlightAware ADS-B (KMTJ)
03:35PM 37.5102 -106.4127 68° East 452 520 37,000  Level FlightAware ADS-B (KMTJ)
03:35PM 37.5373 -106.3267 68° East 452 520 37,000  Level FlightAware ADS-B (KMTJ)
03:36PM 37.5606 -106.2529 68° East 453 521 37,000  Level FlightAware ADS-B (KMTJ)
03:36PM 37.5771 -106.2004 68° East 456 525 37,000 240 Level FlightAware ADS-B (KMTJ)
03:37PM 37.6093 -106.0975 68° East 457 526 37,300 1,020 Climbing FlightAware ADS-B (KMTJ)
03:37PM 37.6339 -106.0188 68° East 455 524 38,100 1,500 Climbing FlightAware ADS-B (KMTJ)
03:38PM 37.6576 -105.9428 68° East 446 513 38,900 1,320 Climbing FlightAware ADS-B (KMTJ)
03:38PM 37.6802 -105.8699 69° East 446 513 39,500 1,080 Climbing FlightAware ADS-B (KMTJ)
03:39PM 37.7033 -105.7957 69° East 446 513 40,000 1,020 Climbing FlightAware ADS-B (KEIK)
03:39PM 37.7272 -105.7182 69° East 442 509 40,600 1,020 Climbing FlightAware ADS-B (KMTJ)
03:40PM 37.7492 -105.6467 69° East 439 505 41,100 960 Climbing FlightAware ADS-B (KMTJ)
03:40PM 37.7720 -105.5725 69° East 436 502 41,600 960 Climbing FlightAware ADS-B (KMTJ)
03:41PM 37.7936 -105.5019 69° East 433 498 42,100 960 Climbing FlightAware ADS-B (KMTJ)
03:41PM 37.8150 -105.4321 69° East 429 494 42,600 960 Climbing FlightAware ADS-B (KMTJ)
03:42PM 37.8361 -105.3630 69° East 434 499 43,100 960 Climbing FlightAware ADS-B (KMTJ)
03:42PM 37.8580 -105.2911 69° East 450 518 43,600 840 Climbing FlightAware ADS-B (KMTJ)
03:44PM 37.9058 -105.1317 69° East 439 505 44,500 600 Climbing Denver Center
03:45PM 37.9469 -104.9969 69° East 431 496 45,000 240 Climbing Denver Center
03:46PM 37.9889 -104.8544 69° East 443 510 45,000  Level Denver Center
03:47PM 38.0411 -104.6814 69° East 463 533 45,000  Level Denver Center
03:48PM 38.1003 -104.4811 69° East 472 543 45,000  Level Denver Center
03:49PM 38.1447 -104.3300 69° East 474 545 45,000  Level Denver Center
03:50PM 38.1894 -104.1756 70° East 481 554 45,000  Level Denver Center
03:51PM 38.2400 -104.0036 69° East 480 552 45,000  Level Denver Center
03:52PM 38.2864 -103.8431 70° East 483 556 45,000  Level Denver Center
03:53PM 38.3308 -103.6869 70° East 487 560 45,000  Level Denver Center
03:54PM 38.3833 -103.5042 70° East 491 565 45,000  Level Denver Center
03:55PM 38.4303 -103.3347 70° East 491 565 45,000  Level Denver Center
03:56PM 38.4758 -103.1753 70° East 498 573 45,000  Level Denver Center
03:57PM 38.5272 -102.9914 70° East 493 567 45,000  Level Denver Center
03:58PM 38.5725 -102.8281 70° East 496 571 45,000  Level Denver Center
03:59PM 38.6300 -102.6208 70° East 494 568 45,000  Level Denver Center
04:00PM 38.6736 -102.4614 71° East 496 571 45,000  Level Denver Center
04:01PM 38.7175 -102.3014 71° East 497 572 45,000  Level Denver Center
04:07PM 38.9754 -101.3347 71° East 472 543 45,000  Level FlightAware ADS-B (KEIK)
04:08PM 39.0116 -101.2140 69° East 477 549 45,000  Level FlightAware ADS-B (KEIK)
04:09PM 39.0483 -101.1118 65° Northeast 479 551 45,000  Level FlightAware ADS-B (KEIK)
04:09PM 39.0761 -101.0330 66° East 481 554 45,000  Level FlightAware ADS-B (KEIK)
04:10PM 39.1143 -100.9249 65° Northeast 484 557 45,000  Level FlightAware ADS-B (KEIK)
04:11PM 39.1667 -100.7781 65° Northeast 485 558 45,000  Level Denver Center
04:12PM 39.2197 -100.6253 66° East 488 562 45,000  Level Denver Center
04:13PM 39.2742 -100.4733 65° Northeast 488 562 45,000  Level Denver Center
04:14PM 39.3358 -100.2931 66° East 492 566 45,000  Level Denver Center
04:15PM 39.3886 -100.1386 66° East 492 566 45,000  Level Denver Center
04:16PM 39.4517 -99.9575 66° East 494 568 45,000  Level Denver Center
04:22PM 39.7881 -98.9571 66° East 499 574 45,000  Level FlightAware ADS-B
04:27PM 40.0453 -98.1683 67° East 501 577 45,000  Level FlightAware ADS-B
04:28PM 40.1047 -97.9829 67° East 500 575 45,000  Level FlightAware ADS-B
04:29PM 40.1848 -97.7304 67° East 499 574 45,000  Level FlightAware ADS-B
04:31PM 40.2536 -97.5121 68° East 498 573 45,000  Level FlightAware ADS-B
04:31PM 40.2847 -97.4103 68° East 498 573 45,000  Level Minneapolis Center
04:32PM 40.3444 -97.2183 68° East 497 572 45,000  Level Minneapolis Center
04:38PM 40.6369 -96.2620 68° East 488 562 45,000  Level FlightAware ADS-B
04:39PM 40.6567 -96.1933 68° East 487 560 45,000  Level Minneapolis Center
04:40PM 40.7067 -96.0283 68° East 488 562 45,000  Level Minneapolis Center
04:41PM 40.7558 -95.8608 69° East 492 566 45,000  Level Minneapolis Center
04:42PM 40.8044 -95.6947 69° East 490 564 45,000  Level Minneapolis Center
04:43PM 40.8533 -95.5253 69° East 496 571 45,000  Level Minneapolis Center
04:44PM 40.9122 -95.3242 69° East 495 570 45,000  Level Minneapolis Center
04:45PM 40.9611 -95.1569 69° East 492 566 45,000 -1,500 Level Minneapolis Center
04:51PM 41.1755 -94.1523 69° East 497 572 35,100 -1,560 Descending FlightAware ADS-B
04:52PM 41.1796 -94.1007 84° East 500 575 34,400 -1,560 Descending FlightAware ADS-B
04:53PM 41.2724 -93.6766 74° East 502 578 31,000 -1,800 Descending FlightAware ADS-B
04:59PM 41.5580 -92.7770 67° East 472 543 22,300 -1,680 Descending FlightAware ADS-B
04:59PM 41.5842 -92.6930 67° East 477 549 21,200 -2,400 Descending FlightAware ADS-B
05:00PM 41.6173 -92.5866 67° East 466 536 19,500 -2,760 Descending FlightAware ADS-B
05:00PM 41.6530 -92.4713 67° East 448 516 17,400 -2,520 Descending FlightAware ADS-B
05:01PM 41.6819 -92.3779 67° East 437 503 15,600 -2,520 Descending FlightAware ADS-B
05:02PM 41.7308 -92.2175 67° East 436 502 13,000 -2,640 Descending Chicago Center
05:03PM 41.7744 -92.0778 67° East 419 482 10,500 -2,100 Descending Chicago Center
05:04PM 41.8394 -91.9869 46° Northeast 356 410 8,800 -2,040 Descending Chicago Center
05:05PM 41.9122 -91.9200 34° Northeast 325 374 6,400 -2,580 Descending Chicago Center
05:06PM 41.9642 -91.8375 50° Northeast 323 372 3,500 -2,160 Descending Chicago Center
05:07PM 41.9361 -91.7642 117° Southeast 230 265 2,000 -900 Descending Chicago Center
05:08PM 41.9119 -91.7342 137° Southeast 172 198 1,700 -300 Descending Chicago Center
05:10PM 41.8833 -91.7000 66° East  Level FlightAware Approximate
05:17PM 41.8847 -91.7108 66° East  Level Estimated